Time;durP1;ratioP1;P1;durP2;ratioP2;P2;SDS_P1;SDS_P2;PMS_P1;PMS_P2;Temp;Humidity;BMP_temperature;BMP_pressure;BME280_temperature;BME280_humidity;BME280_pressure;Samples;Min_cycle;Max_cycle;Signal;HPM_P1;HPM_P2
2023/05/12 04:30:42;;;;;;;;;2.00;2.00;;;;;13.43;59.68;101272.88;5062701;27;45572;-73
2023/05/12 04:33:08;;;;;;;;;4.00;2.75;;;;;13.45;59.83;101282.59;5052538;28;45497;-76
2023/05/12 04:35:34;;;;;;;;;1.25;1.25;;;;;13.42;59.75;101277.38;5046844;28;46547;-74
2023/05/12 04:38:02;;;;;;;;;1.75;1.75;;;;;13.41;60.16;101275.63;5055108;28;46211;-74
2023/05/12 04:40:28;;;;;;;;;2.00;2.00;;;;;13.43;59.69;101276.44;5050978;28;45394;-73
2023/05/12 04:42:53;;;;;;;;;1.00;1.00;;;;;13.44;58.92;101282.69;5051306;28;45506;-75
2023/05/12 04:45:19;;;;;;;;;2.75;2.00;;;;;13.45;58.98;101282.59;5055230;28;45222;-77
2023/05/12 04:47:44;;;;;;;;;2.00;2.00;;;;;13.52;58.63;101281.38;5054696;28;45518;-73
2023/05/12 04:50:11;;;;;;;;;1.75;1.75;;;;;13.44;58.62;101267.38;5054778;28;45314;-74
2023/05/12 04:52:37;;;;;;;;;2.00;2.00;;;;;13.51;58.75;101278.75;5054784;28;45316;-74
2023/05/12 04:55:03;;;;;;;;;3.00;1.25;;;;;13.55;58.19;101288.41;5054924;28;45588;-74
2023/05/12 04:57:29;;;;;;;;;4.00;2.25;;;;;13.48;57.73;101285.16;5054428;28;46011;-76
2023/05/12 04:59:55;;;;;;;;;4.00;2.75;;;;;13.52;57.72;101286.75;5054890;28;45388;-76
2023/05/12 05:02:20;;;;;;;;;2.00;2.00;;;;;13.49;57.54;101284.19;5054842;28;45560;-76
2023/05/12 05:04:47;;;;;;;;;3.00;3.00;;;;;13.53;57.46;101296.56;5054226;28;45559;-74
2023/05/12 05:07:12;;;;;;;;;4.25;2.00;;;;;13.49;57.63;101302.19;5054301;28;46138;-77
2023/05/12 05:09:37;;;;;;;;;2.00;2.00;;;;;13.47;57.30;101304.06;5054555;28;45423;-75
2023/05/12 05:12:03;;;;;;;;;3.00;3.00;;;;;13.41;57.68;101294.47;5054369;28;45484;-74
2023/05/12 05:14:28;;;;;;;;;4.00;3.75;;;;;13.45;57.34;101306.81;5054495;28;45430;-75
2023/05/12 05:16:53;;;;;;;;;2.50;1.00;;;;;13.24;57.24;101280.97;5054070;28;51300;-74
2023/05/12 05:19:19;;;;;;;;;4.50;2.00;;;;;13.37;56.95;101306.34;5054628;28;45287;-76
2023/05/12 05:21:44;;;;;;;;;2.50;2.50;;;;;13.30;56.61;101299.50;5053353;28;45284;-75
2023/05/12 05:24:09;;;;;;;;;3.25;2.00;;;;;13.34;57.11;101314.59;5053971;28;45217;-74
2023/05/12 05:26:35;;;;;;;;;2.00;2.00;;;;;13.30;57.15;101304.88;5054190;28;45970;-77
2023/05/12 05:29:01;;;;;;;;;0.75;0.75;;;;;13.34;57.47;101311.00;5053950;28;45407;-74
2023/05/12 05:31:27;;;;;;;;;2.00;2.00;;;;;13.36;57.43;101314.47;5054362;28;45416;-75
2023/05/12 05:33:53;;;;;;;;;2.50;2.50;;;;;13.37;57.24;101313.53;5074337;28;45328;-76
2023/05/12 05:36:20;;;;;;;;;5.00;2.75;;;;;13.38;56.78;101315.28;5074228;28;46026;-75
2023/05/12 05:38:45;;;;;;;;;2.25;2.25;;;;;13.37;56.07;101316.22;5074246;28;45323;-76
2023/05/12 05:41:11;;;;;;;;;1.25;1.00;;;;;13.35;56.69;101327.09;5062673;28;45501;-75
2023/05/12 05:43:36;;;;;;;;;1.00;1.00;;;;;13.33;56.53;101322.72;5074103;28;45438;-75
2023/05/12 05:46:02;;;;;;;;;2.00;2.00;;;;;13.31;56.48;101322.78;5073272;28;45744;-75
2023/05/12 05:48:27;;;;;;;;;1.25;1.25;;;;;13.29;56.66;101323.81;5074573;28;45401;-75
2023/05/12 05:50:53;;;;;;;;;1.75;1.75;;;;;13.31;56.76;101330.00;5074812;28;45807;-74
2023/05/12 05:53:19;;;;;;;;;3.00;1.25;;;;;13.27;56.85;101306.88;5074398;28;45391;-76
2023/05/12 05:55:45;;;;;;;;;4.00;4.00;;;;;13.41;56.00;101317.84;5074085;28;46116;-75
2023/05/12 05:58:11;;;;;;;;;3.00;3.00;;;;;13.38;56.34;101313.47;5073939;28;45350;-74
2023/05/12 06:00:36;;;;;;;;;2.00;2.00;;;;;13.43;56.33;101315.97;5074289;28;45347;-73
2023/05/12 06:03:02;;;;;;;;;3.50;2.50;;;;;13.45;56.02;101308.66;5072776;28;45571;-75
2023/05/12 06:05:27;;;;;;;;;2.00;2.00;;;;;13.55;56.78;101318.03;5073026;28;46187;-75
2023/05/12 06:07:53;;;;;;;;;2.75;2.50;;;;;13.66;55.99;101321.09;5074133;28;45390;-71
2023/05/12 06:10:18;;;;;;;;;2.00;2.00;;;;;13.62;55.85;101298.78;5074058;28;45397;-77
2023/05/12 06:12:43;;;;;;;;;2.00;2.00;;;;;13.82;55.89;101323.88;5073557;28;45456;-73
2023/05/12 06:15:09;;;;;;;;;4.00;2.00;;;;;13.81;55.90;101298.75;5073949;28;45340;-77
2023/05/12 06:17:35;;;;;;;;;1.75;1.75;;;;;13.83;54.15;101301.38;5073731;28;45399;-77
2023/05/12 06:20:01;;;;;;;;;5.75;3.50;;;;;13.82;54.54;101305.00;5073318;28;45354;-73
2023/05/12 06:22:26;;;;;;;;;2.00;2.00;;;;;13.79;54.64;101297.06;5073863;28;45609;-75
2023/05/12 06:24:52;;;;;;;;;1.75;1.75;;;;;13.89;54.56;101312.72;5073891;28;46151;-75
2023/05/12 06:27:17;;;;;;;;;3.00;3.00;;;;;13.92;54.28;101314.38;5073789;28;45343;-76
2023/05/12 06:29:44;;;;;;;;;2.00;2.00;;;;;13.85;53.79;101300.34;5073714;28;45564;-79
2023/05/12 06:32:09;;;;;;;;;0.75;0.75;;;;;13.97;54.33;101320.41;5073538;28;45559;-77
2023/05/12 06:34:34;;;;;;;;;4.75;2.50;;;;;13.98;53.67;101320.34;5076857;28;46526;-71
2023/05/12 06:37:00;;;;;;;;;2.50;2.50;;;;;14.01;53.48;101322.00;5077448;28;45311;-70
2023/05/12 06:39:25;;;;;;;;;3.75;2.00;;;;;13.94;53.83;101320.59;5077451;28;45320;-73
2023/05/12 06:41:51;;;;;;;;;4.00;3.00;;;;;13.92;53.33;101330.56;5068699;28;45395;-72
2023/05/12 06:44:16;;;;;;;;;2.00;2.00;;;;;13.79;53.71;101314.13;5055572;28;45499;-74
2023/05/12 06:46:41;;;;;;;;;1.00;1.00;;;;;13.72;54.30;101328.84;5068387;28;45892;-74
2023/05/12 06:49:07;;;;;;;;;4.00;2.00;;;;;13.61;54.65;101320.41;5075360;28;45353;-73
2023/05/12 06:51:32;;;;;;;;;5.50;4.00;;;;;13.75;55.34;101338.63;5076937;28;45356;-73
2023/05/12 06:53:59;;;;;;;;;2.00;2.00;;;;;13.78;54.48;101327.69;5077543;28;46045;-76
2023/05/12 06:56:24;;;;;;;;;4.50;3.00;;;;;13.84;54.87;101341.72;5076870;28;45486;-71
2023/05/12 06:58:51;;;;;;;;;2.00;2.00;;;;;13.92;55.05;101338.66;5074205;28;45599;-73
2023/05/12 07:01:17;;;;;;;;;3.00;3.00;;;;;13.97;54.46;101326.66;5080283;27;45421;-74
2023/05/12 07:03:42;;;;;;;;;3.75;2.00;;;;;13.91;54.99;101315.34;5049143;28;46453;-72
2023/05/12 07:06:08;;;;;;;;;2.00;2.00;;;;;13.95;54.65;101323.16;5073433;28;45421;-74
2023/05/12 07:08:33;;;;;;;;;2.00;2.00;;;;;14.06;55.24;101332.53;5041952;28;45469;-73
2023/05/12 07:10:59;;;;;;;;;3.50;2.00;;;;;14.11;54.99;101326.00;5076051;28;45988;-78
2023/05/12 07:13:25;;;;;;;;;3.00;3.00;;;;;14.24;54.94;101328.91;5075776;28;45634;-73
2023/05/12 07:15:50;;;;;;;;;4.50;3.00;;;;;14.10;54.49;101302.66;5076334;28;45398;-75
2023/05/12 07:18:15;;;;;;;;;4.00;2.25;;;;;14.17;54.70;101305.91;5075272;28;46909;-75
2023/05/12 07:20:41;;;;;;;;;6.50;4.00;;;;;14.33;54.83;101326.63;5056027;28;45322;-74
2023/05/12 07:23:06;;;;;;;;;2.25;2.25;;;;;14.32;55.22;101311.38;5054898;28;45414;-73
2023/05/12 07:25:32;;;;;;;;;3.75;3.00;;;;;14.38;55.26;101321.88;5076042;28;45294;-74
2023/05/12 07:27:57;;;;;;;;;5.50;2.25;;;;;14.32;55.52;101315.91;5075996;28;45354;-72
2023/05/12 07:30:22;;;;;;;;;2.00;2.00;;;;;14.40;55.94;101324.50;5075954;28;45433;-73
2023/05/12 07:32:48;;;;;;;;;2.00;2.00;;;;;14.42;56.11;101316.31;5075416;28;48926;-73
2023/05/12 07:35:13;;;;;;;;;6.50;3.25;;;;;14.53;56.25;101314.81;5058614;28;46549;-73
2023/05/12 07:37:40;;;;;;;;;3.00;3.00;;;;;14.68;56.11;101316.69;5066821;27;45892;-71
2023/05/12 07:40:06;;;;;;;;;3.25;2.50;;;;;14.82;55.96;101315.06;5065359;28;47213;-76
2023/05/12 07:42:32;;;;;;;;;3.50;3.50;;;;;14.92;55.57;101308.19;5073348;28;46413;-72
2023/05/12 07:44:57;;;;;;;;;3.00;3.00;;;;;14.94;55.54;101319.78;5065470;28;45433;-71
2023/05/12 07:47:22;;;;;;;;;3.00;3.00;;;;;15.01;55.46;101313.97;5066788;28;45367;-75
2023/05/12 07:49:48;;;;;;;;;4.50;4.50;;;;;15.05;55.49;101320.97;5074780;28;45405;-72
2023/05/12 07:52:13;;;;;;;;;2.25;2.25;;;;;15.10;55.80;101301.78;5062634;28;47804;-72
2023/05/12 07:54:38;;;;;;;;;5.00;3.00;;;;;15.11;55.82;101309.81;5063538;28;45310;-75
2023/05/12 07:57:04;;;;;;;;;3.25;3.25;;;;;15.25;55.66;101318.97;5056582;28;45355;-71
2023/05/12 07:59:29;;;;;;;;;3.25;2.75;;;;;15.36;55.50;101316.53;5055285;28;45509;-71
2023/05/12 08:01:54;;;;;;;;;4.75;3.00;;;;;15.40;55.22;101296.47;5053721;28;45415;-69
2023/05/12 08:04:20;;;;;;;;;4.00;4.00;;;;;15.42;55.06;101290.03;5059121;28;47241;-71
2023/05/12 08:06:45;;;;;;;;;3.00;3.00;;;;;15.54;54.82;101311.94;5055505;28;45367;-69
2023/05/12 08:09:10;;;;;;;;;5.25;4.00;;;;;15.70;55.12;101307.41;5054893;28;52519;-69
2023/05/12 08:11:36;;;;;;;;;3.50;3.50;;;;;15.76;54.94;101301.63;5055337;28;46005;-71
2023/05/12 08:14:01;;;;;;;;;2.50;2.50;;;;;15.89;54.96;101313.47;5054625;28;45373;-70
2023/05/12 08:16:26;;;;;;;;;3.25;2.00;;;;;15.91;54.52;101307.97;5055782;28;45298;-70
2023/05/12 08:18:52;;;;;;;;;4.75;4.75;;;;;15.94;54.32;101305.94;5054594;28;47895;-73
2023/05/12 08:21:17;;;;;;;;;5.00;3.25;;;;;15.95;54.60;101305.00;5057768;28;46303;-70
2023/05/12 08:23:43;;;;;;;;;5.00;2.00;;;;;16.03;54.82;101307.25;5064372;28;45468;-70
2023/05/12 08:26:09;;;;;;;;;5.00;3.00;;;;;16.13;54.72;101316.56;5071912;27;45361;-70
2023/05/12 08:28:34;;;;;;;;;6.00;4.00;;;;;16.11;54.91;101311.22;5075588;27;45224;-69
2023/05/12 08:31:00;;;;;;;;;4.75;3.75;;;;;15.92;54.85;101293.47;5056067;28;46501;-73
2023/05/12 08:33:26;;;;;;;;;3.50;2.25;;;;;16.06;55.19;101316.06;5074980;28;45334;-71
2023/05/12 08:35:52;;;;;;;;;4.25;4.00;;;;;16.11;55.39;101316.63;5063503;28;45600;-71
2023/05/12 08:38:17;;;;;;;;;5.00;4.00;;;;;16.17;55.10;101324.38;5067871;27;45508;-71
2023/05/12 08:41:01;;;;;;;;;4.00;4.00;;;;;16.04;55.81;101319.81;5054312;28;46151;-71
2023/05/12 08:43:37;;;;;;;;;2.75;2.75;;;;;16.01;56.18;101325.38;5054467;28;45416;-72
2023/05/12 08:46:04;;;;;;;;;5.50;3.50;;;;;16.07;56.42;101322.34;5054229;28;45517;-71
2023/05/12 08:48:33;;;;;;;;;4.00;4.00;;;;;16.10;57.00;101317.59;5054488;28;45511;-71
2023/05/12 08:51:01;;;;;;;;;6.00;6.00;;;;;16.17;56.72;101328.91;5073475;27;45515;-70
2023/05/12 08:53:28;;;;;;;;;5.50;4.25;;;;;16.08;56.92;101314.09;5084628;27;45623;-70
2023/05/12 08:55:54;;;;;;;;;5.00;3.75;;;;;16.16;57.74;101328.03;5072105;27;45344;-70
2023/05/12 08:58:20;;;;;;;;;4.00;4.00;;;;;16.19;58.11;101329.69;5061510;27;45382;-72
2023/05/12 09:00:45;;;;;;;;;6.00;4.00;;;;;16.19;58.33;101321.59;5059370;27;45338;-71
2023/05/12 09:03:12;;;;;;;;;8.00;4.00;;;;;16.28;59.23;101338.16;5066576;27;45483;-71
2023/05/12 09:05:39;;;;;;;;;4.25;4.25;;;;;16.25;59.23;101323.91;5060934;27;45186;-71
2023/05/12 09:08:06;;;;;;;;;8.00;5.00;;;;;16.31;59.62;101336.22;5069483;28;45420;-73
2023/05/12 09:10:32;;;;;;;;;5.75;4.75;;;;;16.29;59.78;101336.31;5071620;27;46183;-70
2023/05/12 09:13:21;;;;;;;;;8.00;6.00;;;;;16.23;60.56;101329.44;5044974;28;45623;-73
2023/05/12 09:15:48;;;;;;;;;8.00;7.00;;;;;16.22;61.16;101332.22;5041747;28;45423;-70
2023/05/12 09:18:13;;;;;;;;;8.25;7.25;;;;;16.19;60.55;101337.81;5053495;28;45355;-72
2023/05/12 09:20:38;;;;;;;;;7.25;7.00;;;;;16.14;61.39;101334.53;5065530;28;46220;-71
2023/05/12 09:23:17;;;;;;;;;6.00;6.00;;;;;16.09;61.45;101344.72;5074009;28;45624;-71
2023/05/12 09:25:42;;;;;;;;;7.75;7.00;;;;;15.96;62.04;101328.38;5061890;28;45465;-71
2023/05/12 09:28:08;;;;;;;;;9.00;9.00;;;;;15.85;63.15;101336.22;5071245;27;45485;-71
2023/05/12 09:30:36;;;;;;;;;9.75;7.00;;;;;15.86;63.54;101344.25;5053599;28;46016;-71
2023/05/12 09:33:06;;;;;;;;;11.00;9.50;;;;;15.86;63.76;101344.25;5055343;28;45533;-73
2023/05/12 09:35:31;;;;;;;;;9.00;9.00;;;;;15.86;64.04;101346.97;5074288;28;45339;-72
2023/05/12 09:38:04;;;;;;;;;13.50;9.50;;;;;15.79;64.94;101331.19;5073902;28;45370;-71
2023/05/12 09:40:30;;;;;;;;;8.25;8.25;;;;;15.92;64.87;101345.72;5048506;28;47490;-74
2023/05/12 09:42:55;;;;;;;;;10.00;9.25;;;;;15.91;65.16;101340.44;5055649;28;53031;-73
2023/05/12 09:45:23;;;;;;;;;11.00;10.00;;;;;15.76;65.54;101313.31;5064657;28;45458;-73
2023/05/12 09:47:50;;;;;;;;;14.25;12.50;;;;;15.80;65.38;101333.81;5074087;28;45283;-78
2023/05/12 09:50:15;;;;;;;;;13.50;10.50;;;;;15.88;65.65;101349.59;5074306;28;45324;-81
2023/05/12 09:52:41;;;;;;;;;10.75;10.00;;;;;15.91;66.40;101351.25;5056445;28;45748;-75
2023/05/12 09:55:08;;;;;;;;;10.00;10.00;;;;;15.90;66.56;101347.69;5073788;28;45292;-74
2023/05/12 09:57:40;;;;;;;;;13.25;10.00;;;;;15.94;66.15;101345.66;5067546;28;46142;-74
2023/05/12 10:00:08;;;;;;;;;14.00;11.50;;;;;15.93;67.28;101343.91;5056247;28;46327;-75
2023/05/12 10:02:39;;;;;;;;;12.00;10.75;;;;;15.95;66.93;101337.44;5062538;28;45930;-75
2023/05/12 10:05:07;;;;;;;;;11.00;11.00;;;;;15.98;66.84;101334.56;5064053;28;46000;-75
2023/05/12 10:07:33;;;;;;;;;11.00;9.75;;;;;16.03;66.19;101328.88;5062974;28;45773;-74
2023/05/12 10:10:03;;;;;;;;;9.00;9.00;;;;;16.17;66.48;101348.72;5062830;28;46390;-74
2023/05/12 10:12:29;;;;;;;;;9.25;8.00;;;;;16.24;65.99;101335.72;5076827;28;45418;-74
2023/05/12 10:14:55;;;;;;;;;8.00;7.25;;;;;16.31;65.45;101333.50;5077394;28;45303;-79
2023/05/12 10:17:23;;;;;;;;;5.00;5.00;;;;;16.11;65.69;101289.59;5063376;28;47466;-79
2023/05/12 10:19:49;;;;;;;;;6.75;6.25;;;;;16.46;65.01;101329.88;5074343;28;47534;-76
2023/05/12 10:22:16;;;;;;;;;7.75;7.75;;;;;16.52;64.48;101334.91;5077130;28;45370;-74
2023/05/12 10:24:43;;;;;;;;;6.75;6.75;;;;;16.53;64.40;101329.41;5076648;28;45409;-75
2023/05/12 10:27:08;;;;;;;;;5.75;4.00;;;;;16.63;64.32;101332.44;5077205;28;45517;-72
2023/05/12 10:29:35;;;;;;;;;5.25;5.25;;;;;16.59;63.69;101331.72;5059094;28;47126;-72
2023/05/12 10:32:01;;;;;;;;;8.25;6.75;;;;;16.53;64.61;101333.94;5076585;28;45406;-74
2023/05/12 10:34:32;;;;;;;;;9.25;7.75;;;;;16.54;63.49;101336.56;5077135;28;45356;-73
2023/05/12 10:36:58;;;;;;;;;8.00;8.00;;;;;16.54;63.48;101339.28;5077706;28;45608;-73
2023/05/12 10:39:31;;;;;;;;;7.25;6.00;;;;;16.47;63.84;101318.09;5076003;28;45670;-72
2023/05/12 10:42:19;;;;;;;;;5.00;5.00;;;;;16.55;62.81;101334.72;5063254;28;45335;-73
2023/05/12 10:44:52;;;;;;;;;5.25;5.00;;;;;16.59;63.16;101336.25;5058690;28;45657;-72
2023/05/12 10:47:25;;;;;;;;;5.00;3.75;;;;;16.60;62.44;101332.59;5075090;28;45445;-72
2023/05/12 10:49:57;;;;;;;;;6.00;6.00;;;;;16.52;62.51;101322.25;5064399;28;45531;-73
2023/05/12 10:52:22;;;;;;;;;5.00;5.00;;;;;16.62;62.90;101330.72;5066458;28;45347;-73
2023/05/12 10:54:48;;;;;;;;;4.50;4.50;;;;;16.65;62.26;101327.81;5070839;28;45572;-73
2023/05/12 10:57:19;;;;;;;;;5.25;5.25;;;;;16.79;62.13;101329.66;5072460;28;45604;-71
2023/05/12 10:59:55;;;;;;;;;6.50;6.50;;;;;16.91;62.22;101323.50;5068943;28;45508;-72
2023/05/12 11:02:28;;;;;;;;;6.50;5.00;;;;;17.03;61.61;101322.69;5060019;28;45374;-74
2023/05/12 11:04:58;;;;;;;;;5.00;5.00;;;;;17.23;62.10;101327.72;5056466;28;45402;-73
2023/05/12 11:07:27;;;;;;;;;5.25;5.25;;;;;17.40;61.35;101322.09;5056035;28;45584;-73
2023/05/12 11:09:54;;;;;;;;;5.00;5.00;;;;;17.55;59.98;101316.63;5056311;28;46158;-74
2023/05/12 11:12:20;;;;;;;;;5.75;5.75;;;;;17.68;59.22;101314.88;5055443;28;45500;-75
2023/05/12 11:14:46;;;;;;;;;5.00;5.00;;;;;17.86;59.29;101320.94;5056735;28;45146;-75
2023/05/12 11:17:11;;;;;;;;;8.00;5.00;;;;;17.99;57.45;101310.97;5054706;28;45457;-73
2023/05/12 11:19:38;;;;;;;;;5.00;5.00;;;;;18.06;57.27;101313.16;5053721;28;45431;-72
2023/05/12 11:22:09;;;;;;;;;5.25;5.25;;;;;18.13;55.94;101316.31;5055852;28;45475;-72
2023/05/12 11:24:36;;;;;;;;;5.75;4.00;;;;;18.06;55.97;101296.88;5038232;28;45380;-79
2023/05/12 11:27:03;;;;;;;;;4.50;4.50;;;;;18.16;56.19;101313.41;5055586;28;45522;-77
2023/05/12 11:29:28;;;;;;;;;5.75;5.00;;;;;18.20;56.44;101314.97;5056124;28;45359;-76
2023/05/12 11:31:53;;;;;;;;;2.00;2.00;;;;;18.20;56.31;101303.22;5055710;28;45325;-76
2023/05/12 11:34:24;;;;;;;;;3.75;3.75;;;;;18.10;55.21;101293.00;5063826;28;45488;-76
2023/05/12 11:36:51;;;;;;;;;4.50;4.50;;;;;18.14;55.33;101304.50;5076411;28;45315;-77
2023/05/12 11:39:24;;;;;;;;;3.00;3.00;;;;;18.17;56.29;101304.31;5069791;28;45597;-80
2023/05/12 11:41:50;;;;;;;;;5.25;4.25;;;;;18.20;56.53;101304.09;5068668;28;45216;-83
2023/05/12 11:44:18;;;;;;;;;5.00;4.75;;;;;17.93;56.29;101252.59;5057130;28;45213;-81
2023/05/12 11:46:57;;;;;;;;;5.25;4.50;;;;;18.22;55.77;101291.25;5060596;28;46414;-80
2023/05/12 11:49:23;;;;;;;;;5.00;5.00;;;;;18.32;55.88;101302.38;5072277;28;45413;-76
2023/05/12 11:51:51;;;;;;;;;3.00;3.00;;;;;18.16;55.25;101272.72;5074955;28;45536;-78
2023/05/12 11:54:17;;;;;;;;;5.50;4.00;;;;;18.15;54.85;101279.97;5052157;28;45571;-73
2023/05/12 11:56:50;;;;;;;;;4.75;4.50;;;;;18.22;55.57;101284.97;5063369;28;45324;-76
2023/05/12 11:59:30;;;;;;;;;4.00;4.00;;;;;18.31;55.88;101297.91;5049492;28;47446;-78
2023/05/12 12:02:03;;;;;;;;;3.75;3.75;;;;;18.35;54.71;101284.03;5066742;28;45500;-78
2023/05/12 12:04:35;;;;;;;;;4.00;4.00;;;;;18.35;54.28;101273.16;5055684;28;45617;-77
2023/05/12 12:07:02;;;;;;;;;3.00;3.00;;;;;18.32;53.44;101281.53;5055429;28;45826;-77
2023/05/12 12:09:35;;;;;;;;;5.25;4.25;;;;;18.22;54.31;101279.53;5055552;28;46366;-77
2023/05/12 12:12:02;;;;;;;;;4.50;4.50;;;;;18.02;54.09;101279.09;5059329;28;45251;-79
2023/05/12 12:14:31;;;;;;;;;5.75;4.00;;;;;17.89;54.03;101272.75;5055398;28;45181;-77
2023/05/12 12:16:57;;;;;;;;;3.50;3.00;;;;;17.73;54.44;101269.34;5062491;28;45359;-78
2023/05/12 12:19:23;;;;;;;;;4.50;4.50;;;;;17.62;55.53;101277.31;5055096;28;46090;-78
2023/05/12 12:21:49;;;;;;;;;3.75;3.00;;;;;17.55;55.46;101281.38;5036222;28;45347;-80
2023/05/12 12:24:14;;;;;;;;;4.00;4.00;;;;;17.54;55.85;101285.91;5054860;28;45462;-78
2023/05/12 12:26:39;;;;;;;;;5.50;4.00;;;;;17.49;56.65;101285.38;5054954;28;45486;-78
2023/05/12 12:29:05;;;;;;;;;4.00;4.00;;;;;17.45;56.89;101299.22;5058053;28;45418;-78
2023/05/12 12:31:30;;;;;;;;;3.25;3.25;;;;;17.23;57.32;101269.94;5054583;28;45296;-79
2023/05/12 12:33:55;;;;;;;;;4.00;4.00;;;;;17.18;57.81;101285.66;5063424;28;45379;-78
2023/05/12 12:36:21;;;;;;;;;6.75;6.75;;;;;16.86;58.16;101264.19;5075234;28;45216;-81
2023/05/12 12:38:46;;;;;;;;;8.00;8.00;;;;;16.92;58.81;101296.31;5056693;28;46419;-77
2023/05/12 12:41:12;;;;;;;;;6.25;5.50;;;;;16.80;58.53;101291.66;5066391;28;45489;-80
2023/05/12 12:43:37;;;;;;;;;5.50;5.00;;;;;16.82;58.93;101305.97;5037105;28;45505;-79
2023/05/12 12:46:03;;;;;;;;;6.75;6.75;;;;;16.46;58.23;101264.91;5054635;28;45436;-79
2023/05/12 12:48:28;;;;;;;;;5.00;4.00;;;;;16.61;58.85;101310.00;5054517;28;45288;-77
2023/05/12 12:50:56;;;;;;;;;4.50;4.50;;;;;16.52;58.89;101302.41;5054421;28;45480;-79
2023/05/12 12:53:22;;;;;;;;;4.50;3.00;;;;;16.42;58.86;101306.66;5061560;28;45382;-79
2023/05/12 12:55:48;;;;;;;;;2.50;2.50;;;;;16.42;58.90;101295.81;5054706;28;45502;-79
2023/05/12 12:58:13;;;;;;;;;4.50;3.50;;;;;16.35;58.94;101297.16;5054141;28;46456;-78
2023/05/12 13:00:39;;;;;;;;;5.00;3.25;;;;;16.46;59.49;101313.63;5051244;28;45458;-78
2023/05/12 13:03:05;;;;;;;;;3.25;3.25;;;;;16.38;59.51;101297.00;5054645;28;45375;-78
2023/05/12 13:05:32;;;;;;;;;4.75;3.00;;;;;16.39;59.28;101313.16;5036702;28;46345;-79
2023/05/12 13:07:57;;;;;;;;;4.50;4.50;;;;;16.41;59.69;101313.06;5054302;28;45956;-77
2023/05/12 13:10:24;;;;;;;;;4.00;4.00;;;;;16.26;60.14;101283.25;5054076;28;54378;-80
2023/05/12 13:12:49;;;;;;;;;4.75;4.00;;;;;16.34;59.93;101284.59;5049482;28;45511;-79
2023/05/12 13:15:16;;;;;;;;;4.00;4.00;;;;;16.52;59.58;101297.88;5053845;28;45384;-78
2023/05/12 13:17:41;;;;;;;;;5.75;5.75;;;;;16.52;59.87;101291.59;5054113;28;46350;-77
2023/05/12 13:20:08;;;;;;;;;8.00;4.75;;;;;16.60;59.33;101298.28;5053882;28;45635;-77
2023/05/12 13:22:34;;;;;;;;;6.00;6.00;;;;;16.63;59.67;101305.38;5054313;28;45540;-78
2023/05/12 13:24:59;;;;;;;;;7.75;7.00;;;;;16.50;59.45;101298.97;5053874;28;47211;-80
2023/05/12 13:27:24;;;;;;;;;5.25;5.25;;;;;16.50;60.01;101307.94;5052518;28;56902;-78
2023/05/12 13:29:50;;;;;;;;;7.00;7.00;;;;;16.42;59.93;101293.13;5053823;28;45369;-77
2023/05/12 13:32:16;;;;;;;;;7.00;5.50;;;;;16.47;60.09;101304.56;5053559;28;45386;-79
2023/05/12 13:34:42;;;;;;;;;5.00;5.00;;;;;16.48;60.32;101301.75;5063950;28;45337;-77
2023/05/12 13:37:07;;;;;;;;;5.00;5.00;;;;;16.42;60.57;101299.41;5073667;28;45504;-78
2023/05/12 13:39:36;;;;;;;;;6.75;5.75;;;;;16.45;60.58;101310.06;5067582;28;45282;-79
2023/05/12 13:42:02;;;;;;;;;6.25;4.00;;;;;16.48;59.89;101300.88;5062532;28;45341;-78
2023/05/12 13:44:27;;;;;;;;;4.50;3.00;;;;;16.29;60.54;101268.66;5053209;28;45390;-77
2023/05/12 13:46:52;;;;;;;;;6.00;6.00;;;;;16.52;59.85;101306.00;5053703;28;46087;-78
2023/05/12 13:49:20;;;;;;;;;5.00;3.25;;;;;16.49;59.14;101294.50;5050636;28;45568;-77
2023/05/12 13:51:46;;;;;;;;;4.00;4.00;;;;;16.46;59.03;101289.28;5063535;28;45311;-78
2023/05/12 13:54:11;;;;;;;;;4.75;3.75;;;;;16.54;58.61;101289.69;5068893;28;45485;-78
2023/05/12 13:56:38;;;;;;;;;4.25;3.00;;;;;16.62;58.43;101296.38;5073860;28;45532;-77
2023/05/12 13:59:03;;;;;;;;;1.75;1.75;;;;;16.71;58.36;101300.34;5033089;28;45394;-77
2023/05/12 14:01:30;;;;;;;;;3.50;2.00;;;;;16.79;58.05;101298.03;5050899;28;45381;-78
2023/05/12 14:03:57;;;;;;;;;1.25;1.25;;;;;16.81;57.94;101284.41;5034059;28;46122;-77
2023/05/12 14:06:22;;;;;;;;;3.00;3.00;;;;;16.82;57.38;101303.28;5059032;28;46160;-79
2023/05/12 14:08:48;;;;;;;;;4.50;3.00;;;;;16.82;57.66;101294.28;5054774;28;45640;-77
2023/05/12 14:11:14;;;;;;;;;1.25;1.25;;;;;16.76;58.24;101278.44;5059015;28;45316;-78
2023/05/12 14:13:39;;;;;;;;;2.50;2.50;;;;;16.81;58.00;101296.13;5053660;28;45412;-78
2023/05/12 14:16:05;;;;;;;;;2.50;2.50;;;;;16.60;58.25;101270.34;5053095;28;46098;-77
2023/05/12 14:18:30;;;;;;;;;2.00;2.00;;;;;16.64;58.76;101288.19;5058444;28;45518;-78
2023/05/12 14:21:05;;;;;;;;;3.75;3.00;;;;;16.60;59.13;101289.28;5078680;27;45261;-77
2023/05/12 14:23:31;;;;;;;;;2.75;2.75;;;;;16.51;59.19;101288.03;5061800;27;45526;-78
2023/05/12 14:25:57;;;;;;;;;3.00;3.00;;;;;16.46;60.15;101292.84;5053417;28;45414;-76
2023/05/12 14:28:22;;;;;;;;;2.75;2.75;;;;;16.22;60.37;101270.88;5052116;28;45446;-77
2023/05/12 14:30:48;;;;;;;;;3.50;3.50;;;;;16.24;61.45;101287.03;5052667;28;45319;-77
2023/05/12 14:33:13;;;;;;;;;4.00;4.00;;;;;16.26;62.02;101302.19;5052965;28;45195;-77
2023/05/12 14:35:38;;;;;;;;;3.50;3.50;;;;;16.23;62.65;101302.38;5072246;28;46260;-77
2023/05/12 14:38:04;;;;;;;;;2.00;2.00;;;;;16.21;62.65;101308.84;5069981;28;45389;-75
2023/05/12 14:40:29;;;;;;;;;3.00;3.00;;;;;16.18;62.74;101296.38;5070115;28;45574;-75
2023/05/12 14:42:54;;;;;;;;;2.00;2.00;;;;;16.13;63.41;101309.31;5055983;28;45497;-73
2023/05/12 14:45:20;;;;;;;;;3.00;3.00;;;;;16.12;63.49;101307.56;5053453;28;46291;-76
2023/05/12 14:47:46;;;;;;;;;3.75;2.75;;;;;15.96;63.98;101289.63;5053258;28;45306;-77
2023/05/12 14:50:12;;;;;;;;;4.00;4.00;;;;;15.98;63.81;101290.44;5056825;28;45537;-77
2023/05/12 14:52:37;;;;;;;;;2.50;1.00;;;;;16.07;63.42;101309.69;5041926;28;45427;-76
2023/05/12 14:55:05;;;;;;;;;2.00;2.00;;;;;16.03;63.32;101308.13;5066301;28;45326;-75
2023/05/12 14:57:32;;;;;;;;;1.00;1.00;;;;;16.04;62.50;101308.97;5057888;28;45379;-75
2023/05/12 14:59:58;;;;;;;;;1.25;1.25;;;;;15.99;62.83;101290.31;5057660;28;45331;-74
2023/05/12 15:02:24;;;;;;;;;1.00;1.00;;;;;16.04;62.58;101299.03;5056765;28;45332;-77
2023/05/12 15:04:49;;;;;;;;;1.00;1.00;;;;;16.10;62.28;101306.78;5061883;28;45374;-78
2023/05/12 15:07:14;;;;;;;;;1.00;1.00;;;;;16.16;62.67;101311.81;5077815;28;44705;-75
2023/05/12 15:09:39;;;;;;;;;2.50;2.00;;;;;16.18;61.93;101309.03;5077653;28;45489;-76
2023/05/12 15:12:06;;;;;;;;;3.25;3.00;;;;;16.22;62.32;101310.59;5077899;28;45450;-77
2023/05/12 15:14:31;;;;;;;;;2.00;2.00;;;;;16.27;62.39;101309.34;5077131;28;46330;-76
2023/05/12 15:16:56;;;;;;;;;2.00;2.00;;;;;16.24;62.52;101293.31;5083248;27;45476;-77
2023/05/12 15:19:22;;;;;;;;;2.25;2.25;;;;;16.38;62.57;101306.00;5065407;28;45481;-75
2023/05/12 15:21:47;;;;;;;;;3.00;3.00;;;;;16.39;61.96;101288.78;5067101;27;47798;-78
2023/05/12 15:24:12;;;;;;;;;3.00;3.00;;;;;16.18;61.80;101241.38;5057278;28;45974;-77
2023/05/12 15:26:42;;;;;;;;;3.00;3.00;;;;;16.54;62.19;101293.25;5057851;28;45412;-78
2023/05/12 15:29:13;;;;;;;;;4.00;4.00;;;;;16.54;62.04;101279.72;5058812;28;50415;-77
2023/05/12 15:31:40;;;;;;;;;3.00;3.00;;;;;16.75;61.06;101296.50;5053276;28;46584;-77
2023/05/12 15:34:06;;;;;;;;;3.25;3.25;;;;;16.74;60.80;101292.06;5068268;28;45504;-77
2023/05/12 15:36:31;;;;;;;;;5.00;5.00;;;;;16.80;60.30;101293.50;5082132;22;45473;-74
2023/05/12 15:38:56;;;;;;;;;3.00;3.00;;;;;16.85;60.29;101291.34;5060176;28;45668;-73
2023/05/12 15:41:22;;;;;;;;;3.00;3.00;;;;;16.83;60.62;101286.06;5055062;28;60126;-72
2023/05/12 15:43:47;;;;;;;;;3.25;3.25;;;;;16.82;60.77;101289.72;5060955;28;46216;-72
2023/05/12 15:46:13;;;;;;;;;4.00;4.00;;;;;16.81;60.55;101284.41;5072945;27;45298;-72
